Terminal Aerodrome Forecast
Issued by NWS Nashville, TN

Home | Current Version | Previous Version | Text Only | Print | Product List | Glossary On
Versions: 1 2 3 4 5 6 7 8 9 10 11 12 13 14 15 16 17 18 19 20 21 22 23 24 25 26 27
000
FTUS44 KOHX 292300
TAFBNA
TAF
KBNA 292325Z 3000/3024 19007KT P6SM SCT060 SCT070 SCT110
     FM301500 18014G24KT P6SM SCT030 BKN120
      TEMPO 3020/3024 2SM TSRA OVC030CB=

USA.gov is the U.S. government's official web portal to all federal, state and local government web resources and services.